Time;durP1;ratioP1;P1;durP2;ratioP2;P2;SDS_P1;SDS_P2;PMS_P1;PMS_P2;Temp;Humidity;BMP_temperature;BMP_pressure;BME280_temperature;BME280_humidity;BME280_pressure;Samples;Min_cycle;Max_cycle;Signal;HPM_P1;HPM_P2
2022/04/22 00:00:22;;;;;;;8.15;7.35;;;;;;;;;;5028254;28;20025;-77
2022/04/22 00:02:47;;;;;;;9.75;7.35;;;;;;;;;;5043846;28;20351;-76
2022/04/22 00:05:13;;;;;;;8.05;6.90;;;;;;;;;;5054522;28;20028;-78
2022/04/22 00:07:38;;;;;;;9.57;7.40;;;;;;;;;;5061534;28;20032;-78
2022/04/22 00:10:05;;;;;;;8.80;6.85;;;;;;;;;;5055583;28;20104;-78
2022/04/22 00:12:30;;;;;;;8.27;6.93;;;;;;;;;;5044259;28;20139;-77
2022/04/22 00:14:56;;;;;;;10.30;6.70;;;;;;;;;;5044576;28;20104;-78
2022/04/22 00:17:21;;;;;;;9.88;6.82;;;;;;;;;;5049603;28;20047;-78
2022/04/22 00:19:46;;;;;;;8.48;6.78;;;;;;;;;;5042326;28;20017;-77
2022/04/22 00:22:11;;;;;;;7.60;6.57;;;;;;;;;;5052673;28;20467;-77
2022/04/22 00:24:37;;;;;;;7.90;6.63;;;;;;;;;;5067691;28;20031;-78
2022/04/22 00:27:02;;;;;;;8.05;6.50;;;;;;;;;;5052048;28;20033;-78
2022/04/22 00:29:28;;;;;;;8.35;5.68;;;;;;;;;;5044379;28;20035;-76
2022/04/22 00:31:53;;;;;;;7.68;6.28;;;;;;;;;;5042182;28;20368;-77
2022/04/22 00:34:18;;;;;;;8.35;6.30;;;;;;;;;;5058429;28;20033;-77
2022/04/22 00:36:44;;;;;;;10.55;6.28;;;;;;;;;;5050083;28;20040;-77
2022/04/22 00:39:09;;;;;;;8.07;6.07;;;;;;;;;;5038640;28;20029;-78
2022/04/22 00:41:34;;;;;;;6.63;5.43;;;;;;;;;;5041864;28;20056;-77
2022/04/22 00:44:01;;;;;;;14.25;6.43;;;;;;;;;;5041985;28;20203;-78
2022/04/22 00:46:26;;;;;;;7.53;5.95;;;;;;;;;;5070303;28;20032;-78
2022/04/22 00:48:52;;;;;;;8.52;6.22;;;;;;;;;;5036618;28;20344;-77
2022/04/22 00:51:18;;;;;;;10.98;6.53;;;;;;;;;;5035970;28;20149;-77
2022/04/22 00:53:45;;;;;;;7.82;6.40;;;;;;;;;;5052979;28;20494;-77
2022/04/22 00:56:10;;;;;;;9.13;7.00;;;;;;;;;;5045417;28;20299;-77
2022/04/22 00:58:36;;;;;;;7.93;6.40;;;;;;;;;;5061388;28;20100;-78
2022/04/22 01:01:02;;;;;;;7.80;6.25;;;;;;;;;;5059547;28;20028;-78
2022/04/22 01:03:29;;;;;;;9.27;6.75;;;;;;;;;;5051506;28;20069;-78
2022/04/22 01:11:31;;;;;;;10.88;7.10;;;;;;;;;;5046156;28;20201;-77
2022/04/22 01:13:57;;;;;;;8.45;7.05;;;;;;;;;;5054734;28;20308;-78
2022/04/22 01:16:23;;;;;;;9.38;6.68;;;;;;;;;;5059447;28;20480;-78
2022/04/22 01:18:48;;;;;;;9.82;6.80;;;;;;;;;;5057464;28;20067;-78
2022/04/22 01:21:13;;;;;;;9.80;7.35;;;;;;;;;;5046027;28;20260;-79
2022/04/22 01:23:38;;;;;;;10.85;7.15;;;;;;;;;;5052669;28;20423;-78
2022/04/22 01:26:08;;;;;;;9.25;7.00;;;;;;;;;;5046844;28;20476;-78
2022/04/22 01:28:34;;;;;;;8.43;6.60;;;;;;;;;;5047563;28;20048;-78
2022/04/22 01:30:59;;;;;;;8.27;6.97;;;;;;;;;;5048503;28;20068;-78
2022/04/22 01:33:24;;;;;;;10.55;7.80;;;;;;;;;;5058430;28;20308;-77
2022/04/22 01:35:50;;;;;;;10.10;7.28;;;;;;;;;;5044380;28;20040;-78
2022/04/22 01:38:16;;;;;;;9.98;7.40;;;;;;;;;;5030568;28;20043;-77
2022/04/22 01:40:41;;;;;;;9.00;7.07;;;;;;;;;;5048136;28;20434;-76
2022/04/22 01:43:08;;;;;;;10.80;7.03;;;;;;;;;;5060220;28;20476;-78
2022/04/22 01:45:33;;;;;;;8.35;7.03;;;;;;;;;;5069532;28;20024;-77
2022/04/22 01:47:58;;;;;;;10.25;7.55;;;;;;;;;;5075964;28;20379;-77
2022/04/22 01:50:24;;;;;;;13.35;7.22;;;;;;;;;;5057204;28;20025;-77
2022/04/22 01:52:49;;;;;;;9.50;7.05;;;;;;;;;;5044690;28;20111;-78
2022/04/22 01:55:14;;;;;;;11.63;7.50;;;;;;;;;;5047430;28;20100;-78
2022/04/22 01:57:40;;;;;;;8.57;7.25;;;;;;;;;;5061767;28;20463;-78
2022/04/22 02:00:06;;;;;;;9.23;6.80;;;;;;;;;;5066146;28;20025;-77
2022/04/22 02:02:31;;;;;;;9.75;7.35;;;;;;;;;;5050519;28;20354;-77
2022/04/22 02:04:56;;;;;;;9.77;7.05;;;;;;;;;;5056780;28;20048;-77
2022/04/22 02:07:22;;;;;;;10.30;7.07;;;;;;;;;;5058802;28;20021;-78
2022/04/22 02:09:47;;;;;;;9.65;7.03;;;;;;;;;;5065932;28;20075;-78
2022/04/22 02:12:13;;;;;;;8.98;7.47;;;;;;;;;;5056470;28;20301;-79
2022/04/22 02:14:38;;;;;;;8.73;7.18;;;;;;;;;;5042041;28;20062;-77
2022/04/22 02:17:03;;;;;;;10.23;7.10;;;;;;;;;;5064538;28;20111;-78
2022/04/22 02:19:29;;;;;;;8.50;7.45;;;;;;;;;;5042252;28;20273;-78
2022/04/22 02:21:54;;;;;;;10.77;7.03;;;;;;;;;;5061133;28;20040;-78
2022/04/22 02:24:19;;;;;;;11.13;7.22;;;;;;;;;;5046467;28;20035;-78
2022/04/22 02:29:28;;;;;;;11.05;7.75;;;;;;;;;;5062835;28;20434;-78
2022/04/22 02:31:54;;;;;;;9.43;7.18;;;;;;;;;;5050071;28;20021;-78
2022/04/22 02:34:22;;;;;;;10.27;7.60;;;;;;;;;;5044108;28;20037;-78
2022/04/22 02:36:48;;;;;;;10.60;7.18;;;;;;;;;;5043841;28;20089;-77
2022/04/22 02:39:14;;;;;;;9.70;7.07;;;;;;;;;;5046969;28;20128;-76
2022/04/22 02:47:07;;;;;;;8.40;7.10;;;;;;;;;;5065533;28;20079;-77
2022/04/22 02:49:32;;;;;;;8.63;6.63;;;;;;;;;;5051199;28;20508;-76
2022/04/22 02:51:57;;;;;;;8.13;7.25;;;;;;;;;;5045144;28;20025;-77
2022/04/22 02:54:23;;;;;;;10.38;7.10;;;;;;;;;;5042787;28;20025;-77
2022/04/22 02:56:50;;;;;;;8.23;6.95;;;;;;;;;;5047358;28;20033;-77
2022/04/22 02:59:17;;;;;;;10.10;6.97;;;;;;;;;;5058938;28;20012;-78
2022/04/22 03:01:43;;;;;;;8.88;6.80;;;;;;;;;;5045986;28;20024;-78
2022/04/22 03:04:09;;;;;;;10.10;7.80;;;;;;;;;;5044974;28;20021;-77
2022/04/22 03:06:34;;;;;;;7.25;6.50;;;;;;;;;;5036466;28;20046;-79
2022/04/22 03:09:00;;;;;;;8.70;6.85;;;;;;;;;;5040283;28;20029;-79
2022/04/22 03:11:25;;;;;;;7.03;6.30;;;;;;;;;;5052768;28;20120;-78
2022/04/22 03:13:51;;;;;;;11.88;7.05;;;;;;;;;;5049855;28;20028;-79
2022/04/22 03:16:17;;;;;;;9.15;6.43;;;;;;;;;;5062635;28;20028;-77
2022/04/22 03:18:42;;;;;;;9.75;6.93;;;;;;;;;;5063208;28;20455;-78
2022/04/22 03:21:08;;;;;;;10.35;6.78;;;;;;;;;;5045264;28;20035;-78
2022/04/22 03:23:33;;;;;;;9.80;6.60;;;;;;;;;;5056641;28;20032;-78
2022/04/22 03:25:59;;;;;;;7.85;6.85;;;;;;;;;;5060557;28;20474;-77
2022/04/22 03:28:24;;;;;;;8.98;6.55;;;;;;;;;;5045450;28;20400;-79
2022/04/22 03:30:52;;;;;;;11.48;6.55;;;;;;;;;;5058185;28;20032;-77
2022/04/22 03:33:18;;;;;;;9.93;6.90;;;;;;;;;;5063331;28;20063;-78
2022/04/22 03:35:44;;;;;;;8.70;6.43;;;;;;;;;;5044707;28;20525;-77
2022/04/22 03:38:13;;;;;;;8.80;6.78;;;;;;;;;;5041022;28;20041;-76
2022/04/22 03:40:38;;;;;;;9.40;6.65;;;;;;;;;;5058505;28;20302;-78
2022/04/22 03:43:03;;;;;;;7.97;7.10;;;;;;;;;;5063956;28;20024;-79
2022/04/22 03:45:29;;;;;;;10.80;6.97;;;;;;;;;;5052046;28;20395;-78
2022/04/22 03:47:58;;;;;;;7.80;6.90;;;;;;;;;;5050196;28;20137;-79
2022/04/22 03:50:23;;;;;;;9.13;6.95;;;;;;;;;;5049212;28;20021;-77
2022/04/22 03:52:49;;;;;;;9.75;7.28;;;;;;;;;;5042130;28;20426;-80
2022/04/22 03:55:14;;;;;;;10.32;7.80;;;;;;;;;;5043452;28;20111;-77
2022/04/22 04:00:23;;;;;;;8.93;7.88;;;;;;;;;;5053551;28;20124;-77
2022/04/22 04:02:49;;;;;;;9.60;7.72;;;;;;;;;;5044095;28;20103;-78
2022/04/22 04:05:15;;;;;;;10.10;7.80;;;;;;;;;;5023247;28;20036;-77
2022/04/22 04:07:40;;;;;;;10.23;8.05;;;;;;;;;;5038685;28;20029;-80
2022/04/22 04:18:19;;;;;;;10.45;8.90;;;;;;;;;;5060644;28;20036;-76
2022/04/22 04:23:28;;;;;;;12.70;9.30;;;;;;;;;;5061268;28;20055;-78
2022/04/22 04:25:54;;;;;;;13.40;9.45;;;;;;;;;;5055964;28;20447;-77
2022/04/22 04:28:23;;;;;;;14.85;9.55;;;;;;;;;;5054495;28;20490;-79
2022/04/22 04:30:48;;;;;;;12.82;9.85;;;;;;;;;;5028141;28;20135;-77
2022/04/22 04:33:14;;;;;;;12.93;9.27;;;;;;;;;;5041641;28;20115;-78
2022/04/22 04:35:40;;;;;;;13.55;9.10;;;;;;;;;;5050138;28;20189;-78
2022/04/22 04:38:06;;;;;;;11.45;8.82;;;;;;;;;;5058395;28;20024;-77
2022/04/22 04:40:32;;;;;;;11.88;9.25;;;;;;;;;;5059266;28;20016;-77
2022/04/22 04:42:57;;;;;;;13.55;9.75;;;;;;;;;;5063307;28;20111;-78
2022/04/22 04:45:23;;;;;;;10.95;9.73;;;;;;;;;;5044202;28;20095;-77
2022/04/22 04:47:48;;;;;;;11.18;9.30;;;;;;;;;;5059072;28;20394;-77
2022/04/22 04:50:13;;;;;;;10.45;9.07;;;;;;;;;;5053643;28;20118;-78
2022/04/22 04:52:41;;;;;;;12.35;10.32;;;;;;;;;;5036069;28;20083;-78
2022/04/22 04:55:07;;;;;;;12.90;10.43;;;;;;;;;;5056562;28;21089;-77
2022/04/22 04:57:33;;;;;;;11.23;10.02;;;;;;;;;;5046315;28;20021;-77
2022/04/22 04:59:58;;;;;;;11.65;10.23;;;;;;;;;;5063672;28;20138;-78
2022/04/22 05:02:24;;;;;;;10.63;9.38;;;;;;;;;;5031787;28;20025;-78
2022/04/22 05:04:49;;;;;;;13.48;10.48;;;;;;;;;;5036628;28;20035;-77
2022/04/22 05:07:14;;;;;;;11.38;9.48;;;;;;;;;;5057071;28;20126;-78
2022/04/22 05:09:40;;;;;;;13.10;10.32;;;;;;;;;;5050368;28;20409;-79
2022/04/22 05:12:05;;;;;;;11.63;10.25;;;;;;;;;;5063325;28;20049;-78
2022/04/22 05:14:30;;;;;;;13.63;10.88;;;;;;;;;;5049278;28;20031;-78
2022/04/22 05:16:56;;;;;;;12.27;10.48;;;;;;;;;;5053998;28;20060;-77
2022/04/22 05:19:23;;;;;;;11.88;10.07;;;;;;;;;;5055356;28;20494;-75
2022/04/22 05:21:49;;;;;;;13.00;10.68;;;;;;;;;;5047980;28;20021;-78
2022/04/22 05:24:14;;;;;;;12.68;11.00;;;;;;;;;;5045171;28;20553;-78
2022/04/22 05:26:39;;;;;;;12.70;10.48;;;;;;;;;;5047273;28;20106;-78
2022/04/22 05:29:04;;;;;;;15.98;11.63;;;;;;;;;;5061000;28;20013;-79
2022/04/22 05:34:14;;;;;;;13.07;11.55;;;;;;;;;;5043258;28;20087;-78
2022/04/22 05:36:39;;;;;;;13.80;11.35;;;;;;;;;;5044860;28;20602;-78
2022/04/22 05:39:08;;;;;;;13.43;11.70;;;;;;;;;;5041126;28;20041;-78
2022/04/22 05:41:35;;;;;;;14.98;12.20;;;;;;;;;;5053637;28;20428;-78
2022/04/22 05:44:02;;;;;;;15.02;12.35;;;;;;;;;;5047770;28;20521;-76
2022/04/22 05:46:28;;;;;;;15.65;12.02;;;;;;;;;;5064212;28;20024;-77
2022/04/22 05:48:53;;;;;;;15.15;12.05;;;;;;;;;;5032370;28;20025;-78
2022/04/22 05:51:19;;;;;;;15.25;12.77;;;;;;;;;;5054438;28;20033;-77
2022/04/22 05:53:47;;;;;;;15.30;11.38;;;;;;;;;;5060856;28;20266;-78
2022/04/22 05:56:13;;;;;;;14.85;12.00;;;;;;;;;;5042597;28;20044;-77
2022/04/22 05:58:38;;;;;;;14.85;12.98;;;;;;;;;;5042483;28;20050;-78
2022/04/22 06:01:03;;;;;;;16.98;12.02;;;;;;;;;;5045811;28;20032;-78
2022/04/22 06:03:30;;;;;;;15.45;12.40;;;;;;;;;;5057352;28;20028;-77
2022/04/22 06:05:55;;;;;;;16.05;12.00;;;;;;;;;;5055624;28;20057;-77
2022/04/22 06:11:05;;;;;;;15.07;12.15;;;;;;;;;;5043217;28;20242;-78
2022/04/22 06:13:30;;;;;;;14.93;12.02;;;;;;;;;;5052021;28;20169;-78
2022/04/22 06:15:55;;;;;;;18.70;12.55;;;;;;;;;;5046242;28;20025;-78
2022/04/22 06:18:21;;;;;;;15.30;12.55;;;;;;;;;;5058417;28;20036;-76
2022/04/22 06:20:48;;;;;;;17.75;12.38;;;;;;;;;;5060728;28;20498;-77
2022/04/22 06:23:13;;;;;;;15.75;12.48;;;;;;;;;;5068291;28;20074;-78
2022/04/22 06:25:45;;;;;;;14.00;12.35;;;;;;;;;;5064103;28;20102;-76
2022/04/22 06:28:11;;;;;;;17.88;12.85;;;;;;;;;;5055404;28;20063;-77
2022/04/22 06:30:36;;;;;;;16.55;13.68;;;;;;;;;;5055131;28;20028;-76
2022/04/22 06:33:03;;;;;;;17.10;14.35;;;;;;;;;;5063820;28;20042;-79
2022/04/22 06:35:37;;;;;;;16.55;13.45;;;;;;;;;;5054662;28;20098;-78
2022/04/22 06:38:05;;;;;;;16.05;13.38;;;;;;;;;;5053900;28;20082;-78
2022/04/22 06:46:19;;;;;;;17.48;14.25;;;;;;;;;;5042937;28;20428;-76
2022/04/22 06:48:44;;;;;;;17.63;14.43;;;;;;;;;;5023718;28;20033;-78
2022/04/22 06:51:10;;;;;;;17.77;14.93;;;;;;;;;;5036770;28;20075;-78
2022/04/22 06:53:36;;;;;;;17.17;14.27;;;;;;;;;;5048281;28;20025;-79
2022/04/22 06:56:02;;;;;;;24.80;13.77;;;;;;;;;;5049205;28;20103;-77
2022/04/22 06:58:30;;;;;;;17.90;14.95;;;;;;;;;;5030949;28;20722;-77
2022/04/22 07:00:56;;;;;;;21.10;15.32;;;;;;;;;;5050601;28;20107;-78
2022/04/22 07:03:21;;;;;;;23.63;15.65;;;;;;;;;;5031368;28;20111;-79
2022/04/22 07:05:47;;;;;;;17.52;13.82;;;;;;;;;;5060958;28;20020;-77
2022/04/22 07:08:14;;;;;;;18.75;14.18;;;;;;;;;;5049275;28;20476;-79
2022/04/22 07:11:00;;;;;;;17.27;14.43;;;;;;;;;;5040040;28;20049;-77
2022/04/22 07:13:27;;;;;;;19.65;14.02;;;;;;;;;;5042346;28;20079;-77
2022/04/22 07:15:53;;;;;;;17.98;14.25;;;;;;;;;;5044046;28;20416;-77
2022/04/22 07:18:19;;;;;;;19.25;15.30;;;;;;;;;;5054367;28;20059;-79
2022/04/22 07:20:44;;;;;;;19.77;14.77;;;;;;;;;;5046427;28;20052;-77
2022/04/22 07:23:10;;;;;;;20.40;13.98;;;;;;;;;;5053693;28;20020;-77
2022/04/22 07:25:36;;;;;;;15.70;14.00;;;;;;;;;;5034599;28;20029;-78
2022/04/22 07:28:04;;;;;;;15.45;12.75;;;;;;;;;;5047145;28;20187;-79
2022/04/22 07:30:29;;;;;;;19.02;14.50;;;;;;;;;;5050465;28;20048;-79
2022/04/22 07:32:55;;;;;;;16.50;13.55;;;;;;;;;;5061175;28;20828;-79
2022/04/22 07:35:21;;;;;;;20.08;14.93;;;;;;;;;;5048932;28;20024;-79
2022/04/22 07:37:55;;;;;;;17.67;13.80;;;;;;;;;;5050969;28;20487;-78
2022/04/22 07:40:21;;;;;;;20.23;14.25;;;;;;;;;;5046980;28;20031;-78
2022/04/22 07:48:17;;;;;;;16.88;13.80;;;;;;;;;;5042148;28;20039;-79
2022/04/22 07:50:43;;;;;;;16.73;12.57;;;;;;;;;;5039640;28;20017;-78
2022/04/22 07:53:08;;;;;;;16.75;13.38;;;;;;;;;;5060168;28;20036;-78
2022/04/22 07:55:33;;;;;;;15.98;12.35;;;;;;;;;;5060690;28;20036;-81
2022/04/22 07:57:58;;;;;;;14.75;12.15;;;;;;;;;;5044267;28;20343;-79
2022/04/22 08:00:24;;;;;;;19.23;13.65;;;;;;;;;;5064856;28;20028;-78
2022/04/22 08:02:49;;;;;;;16.67;13.10;;;;;;;;;;5062566;28;20028;-77
2022/04/22 08:05:14;;;;;;;17.50;12.93;;;;;;;;;;5045481;28;20035;-80
2022/04/22 08:07:40;;;;;;;13.77;12.30;;;;;;;;;;5059205;28;20501;-77
2022/04/22 08:10:06;;;;;;;16.17;12.20;;;;;;;;;;5059275;28;20043;-77
2022/04/22 08:12:33;;;;;;;17.98;12.55;;;;;;;;;;5065332;28;20035;-78
2022/04/22 08:14:58;;;;;;;15.73;12.18;;;;;;;;;;5062036;28;20033;-78
2022/04/22 08:17:24;;;;;;;14.88;11.88;;;;;;;;;;5062238;28;20036;-78
2022/04/22 08:19:49;;;;;;;15.20;12.23;;;;;;;;;;5059128;28;20493;-78
2022/04/22 08:22:15;;;;;;;18.60;12.68;;;;;;;;;;5057710;28;20033;-76
2022/04/22 08:24:41;;;;;;;19.83;13.10;;;;;;;;;;5037413;28;20029;-77
2022/04/22 08:27:07;;;;;;;18.83;12.65;;;;;;;;;;5042143;28;20027;-79
2022/04/22 08:29:33;;;;;;;15.63;12.50;;;;;;;;;;5042219;28;20276;-78
2022/04/22 08:31:59;;;;;;;14.18;11.98;;;;;;;;;;5040602;28;20128;-77
2022/04/22 08:34:24;;;;;;;15.68;12.18;;;;;;;;;;5039719;28;20159;-76
2022/04/22 08:36:49;;;;;;;16.25;12.30;;;;;;;;;;5065915;28;20024;-76
2022/04/22 08:39:15;;;;;;;15.43;12.45;;;;;;;;;;5064417;28;20431;-78
2022/04/22 08:41:41;;;;;;;15.15;11.85;;;;;;;;;;5053577;28;20033;-76
2022/04/22 08:44:07;;;;;;;15.07;12.23;;;;;;;;;;5068529;28;20046;-78
2022/04/22 08:52:02;;;;;;;13.75;11.52;;;;;;;;;;5042563;28;20225;-77
2022/04/22 08:54:28;;;;;;;15.20;11.50;;;;;;;;;;5059499;28;20022;-79
2022/04/22 08:56:55;;;;;;;14.25;10.73;;;;;;;;;;5061177;28;20024;-78
2022/04/22 08:59:21;;;;;;;13.65;10.95;;;;;;;;;;5034152;28;20059;-75
2022/04/22 09:01:48;;;;;;;14.20;11.63;;;;;;;;;;5049120;28;20021;-76
2022/04/22 09:04:13;;;;;;;15.45;10.82;;;;;;;;;;5052151;28;20104;-78
2022/04/22 09:06:38;;;;;;;14.10;10.43;;;;;;;;;;5053005;28;20460;-76
2022/04/22 09:09:07;;;;;;;15.85;11.05;;;;;;;;;;5049480;28;20481;-78
2022/04/22 09:11:38;;;;;;;13.45;10.23;;;;;;;;;;5045725;28;20037;-78
2022/04/22 09:14:04;;;;;;;14.05;10.30;;;;;;;;;;5039377;28;20032;-77
2022/04/22 09:16:29;;;;;;;12.38;9.77;;;;;;;;;;5056583;28;20028;-78
2022/04/22 09:18:58;;;;;;;13.02;10.13;;;;;;;;;;5061910;28;20047;-77
2022/04/22 09:21:24;;;;;;;11.15;10.05;;;;;;;;;;5059256;28;20017;-78
2022/04/22 09:23:50;;;;;;;11.25;9.95;;;;;;;;;;5060471;28;20021;-78
2022/04/22 09:26:23;;;;;;;11.68;9.52;;;;;;;;;;5062490;28;20119;-77
2022/04/22 09:28:56;;;;;;;11.80;9.40;;;;;;;;;;5045366;28;20143;-78
2022/04/22 09:31:22;;;;;;;14.85;10.02;;;;;;;;;;5045313;28;20033;-76
2022/04/22 09:33:48;;;;;;;11.82;9.73;;;;;;;;;;5047843;28;20356;-79
2022/04/22 09:44:51;;;;;;;9.88;8.88;;;;;;;;;;5042832;28;20968;-77
2022/04/22 09:47:16;;;;;;;11.93;9.77;;;;;;;;;;5056240;28;20411;-78
2022/04/22 09:49:43;;;;;;;11.52;9.48;;;;;;;;;;5044518;28;20509;-78
2022/04/22 09:52:08;;;;;;;10.18;8.88;;;;;;;;;;5051455;28;20581;-78
2022/04/22 09:54:34;;;;;;;14.90;9.27;;;;;;;;;;5043661;28;20200;-78
2022/04/22 09:57:00;;;;;;;13.60;9.07;;;;;;;;;;5042756;28;20040;-77
2022/04/22 09:59:29;;;;;;;10.23;8.85;;;;;;;;;;5044183;28;20020;-77
2022/04/22 10:01:55;;;;;;;11.93;9.75;;;;;;;;;;5042499;28;20024;-78
2022/04/22 10:04:21;;;;;;;12.30;9.23;;;;;;;;;;5040970;28;20035;-78
2022/04/22 10:06:47;;;;;;;10.88;9.35;;;;;;;;;;5044311;28;20013;-79
2022/04/22 10:09:16;;;;;;;12.90;8.75;;;;;;;;;;5041781;28;20507;-78
2022/04/22 10:11:43;;;;;;;12.35;9.13;;;;;;;;;;5063843;28;20036;-77
2022/04/22 10:14:09;;;;;;;11.75;9.45;;;;;;;;;;5061871;28;20477;-77
2022/04/22 10:16:35;;;;;;;12.68;8.90;;;;;;;;;;5055332;28;20452;-80
2022/04/22 10:19:01;;;;;;;10.85;9.63;;;;;;;;;;5039731;28;20028;-79
2022/04/22 10:21:27;;;;;;;11.55;8.02;;;;;;;;;;5054267;28;20013;-78
2022/04/22 10:23:53;;;;;;;12.45;9.18;;;;;;;;;;5043771;28;20096;-79
2022/04/22 10:26:19;;;;;;;15.48;9.27;;;;;;;;;;5045168;28;20045;-79
2022/04/22 10:28:46;;;;;;;9.98;8.60;;;;;;;;;;5038846;28;20052;-79
2022/04/22 10:31:11;;;;;;;12.68;9.15;;;;;;;;;;5046622;28;20512;-78
2022/04/22 10:33:43;;;;;;;10.82;8.18;;;;;;;;;;5052454;28;20028;-78
2022/04/22 10:36:11;;;;;;;10.95;8.13;;;;;;;;;;5056911;28;20067;-77
2022/04/22 10:38:38;;;;;;;14.23;8.35;;;;;;;;;;5064297;28;20017;-78
2022/04/22 10:41:05;;;;;;;12.65;8.93;;;;;;;;;;5067369;28;20040;-80
2022/04/22 10:43:31;;;;;;;11.98;8.07;;;;;;;;;;5066447;28;20119;-77
2022/04/22 10:48:40;;;;;;;14.05;8.32;;;;;;;;;;5059841;28;20553;-79
2022/04/22 10:51:08;;;;;;;10.80;8.40;;;;;;;;;;5029910;28;20111;-79
2022/04/22 10:53:43;;;;;;;9.95;8.95;;;;;;;;;;5051353;28;20036;-83
2022/04/22 10:56:30;;;;;;;9.05;8.15;;;;;;;;;;5053877;28;20052;-80
2022/04/22 10:59:14;;;;;;;9.27;8.38;;;;;;;;;;5060157;28;20111;-76
2022/04/22 11:01:40;;;;;;;13.98;8.25;;;;;;;;;;5046143;28;20021;-77
2022/04/22 11:04:16;;;;;;;10.25;8.88;;;;;;;;;;5041520;28;20033;-79
2022/04/22 11:06:42;;;;;;;12.75;8.90;;;;;;;;;;5049493;28;20025;-78
2022/04/22 11:09:07;;;;;;;9.55;8.40;;;;;;;;;;5044353;28;20017;-79
2022/04/22 11:11:38;;;;;;;9.05;7.82;;;;;;;;;;5043019;28;20578;-77
2022/04/22 11:14:16;;;;;;;11.27;7.80;;;;;;;;;;5051993;28;20024;-79
2022/04/22 11:16:41;;;;;;;13.63;8.27;;;;;;;;;;5051076;28;20114;-79
2022/04/22 11:19:11;;;;;;;11.57;8.23;;;;;;;;;;5025070;28;20123;-80
2022/04/22 11:21:37;;;;;;;9.27;7.82;;;;;;;;;;5045320;28;20051;-79
2022/04/22 11:24:15;;;;;;;10.52;8.13;;;;;;;;;;5041791;28;20385;-78
2022/04/22 11:26:45;;;;;;;14.68;7.95;;;;;;;;;;5043050;28;20047;-79
2022/04/22 11:29:11;;;;;;;9.23;7.82;;;;;;;;;;5053233;28;20032;-81
2022/04/22 11:31:37;;;;;;;10.48;7.88;;;;;;;;;;5062515;28;20024;-79
2022/04/22 11:34:18;;;;;;;9.00;7.85;;;;;;;;;;5040185;28;20098;-78
2022/04/22 11:36:47;;;;;;;9.23;7.50;;;;;;;;;;5064250;28;20047;-77
2022/04/22 11:39:20;;;;;;;8.43;7.30;;;;;;;;;;5043820;28;20032;-78
2022/04/22 11:41:53;;;;;;;9.45;7.43;;;;;;;;;;5057861;28;20013;-78
2022/04/22 11:44:19;;;;;;;8.95;6.93;;;;;;;;;;5038955;28;20283;-79
2022/04/22 11:46:45;;;;;;;7.70;6.90;;;;;;;;;;5054276;28;20096;-78
2022/04/22 11:49:10;;;;;;;10.07;6.50;;;;;;;;;;5036893;28;20112;-79
2022/04/22 11:51:35;;;;;;;7.18;6.47;;;;;;;;;;5043342;28;20021;-78
2022/04/22 11:54:01;;;;;;;9.25;6.80;;;;;;;;;;5042872;28;20515;-79
2022/04/22 11:56:26;;;;;;;9.73;6.32;;;;;;;;;;5064501;28;20036;-78
2022/04/22 11:58:56;;;;;;;8.25;6.25;;;;;;;;;;5056240;28;20025;-77
2022/04/22 12:10:05;;;;;;;7.15;5.15;;;;;;;;;;5058419;28;20578;-77
2022/04/22 12:12:34;;;;;;;7.05;5.40;;;;;;;;;;5062505;28;20036;-77
2022/04/22 12:15:03;;;;;;;8.60;5.50;;;;;;;;;;5059967;28;20459;-78
2022/04/22 12:17:29;;;;;;;5.47;4.78;;;;;;;;;;5061885;28;20047;-78
2022/04/22 12:19:54;;;;;;;5.97;4.90;;;;;;;;;;5053468;28;20395;-78
2022/04/22 12:22:20;;;;;;;6.97;4.90;;;;;;;;;;5033733;28;20024;-76
2022/04/22 12:25:04;;;;;;;7.60;4.53;;;;;;;;;;5060489;28;20025;-76
2022/04/22 12:27:30;;;;;;;6.72;4.38;;;;;;;;;;5064271;28;20482;-78
2022/04/22 12:30:04;;;;;;;8.18;5.00;;;;;;;;;;5049346;28;20045;-78
2022/04/22 12:32:31;;;;;;;6.18;4.60;;;;;;;;;;5024524;28;20040;-79
2022/04/22 12:35:09;;;;;;;5.70;4.28;;;;;;;;;;5044289;28;20169;-78
2022/04/22 12:37:34;;;;;;;6.82;4.38;;;;;;;;;;5061624;28;20451;-78
2022/04/22 12:40:09;;;;;;;5.25;4.32;;;;;;;;;;5032208;28;20036;-79
2022/04/22 12:42:35;;;;;;;8.55;4.88;;;;;;;;;;5043970;28;20017;-77
2022/04/22 12:53:34;;;;;;;7.00;4.65;;;;;;;;;;5047900;28;20507;-77
2022/04/22 12:56:06;;;;;;;5.95;3.83;;;;;;;;;;5040150;28;20104;-76
2022/04/22 12:58:32;;;;;;;7.32;3.95;;;;;;;;;;5048842;28;20021;-77
2022/04/22 13:00:58;;;;;;;5.28;4.15;;;;;;;;;;5062266;28;20016;-76
2022/04/22 13:03:36;;;;;;;4.72;3.95;;;;;;;;;;5058835;28;20453;-78
2022/04/22 13:06:02;;;;;;;6.82;4.00;;;;;;;;;;5041357;28;20013;-77
2022/04/22 13:08:28;;;;;;;5.78;4.32;;;;;;;;;;5033817;28;20160;-78
2022/04/22 13:10:57;;;;;;;5.53;4.10;;;;;;;;;;5033803;28;20057;-77
2022/04/22 13:13:23;;;;;;;10.60;4.63;;;;;;;;;;5049575;28;20102;-78
2022/04/22 13:15:48;;;;;;;4.85;3.75;;;;;;;;;;5051563;28;20434;-79
2022/04/22 13:18:14;;;;;;;6.10;4.00;;;;;;;;;;5052572;28;20039;-78
2022/04/22 13:20:39;;;;;;;5.30;3.95;;;;;;;;;;5054121;28;20508;-78
2022/04/22 13:23:06;;;;;;;5.60;4.07;;;;;;;;;;5040965;28;20017;-78
2022/04/22 13:25:31;;;;;;;5.15;3.90;;;;;;;;;;5021916;28;20380;-77
2022/04/22 13:27:56;;;;;;;6.68;3.92;;;;;;;;;;5041296;28;20039;-77
2022/04/22 13:30:22;;;;;;;6.40;4.20;;;;;;;;;;5060086;28;20047;-77
2022/04/22 13:32:47;;;;;;;8.05;3.90;;;;;;;;;;5061027;28;20415;-78
2022/04/22 13:35:13;;;;;;;4.78;4.10;;;;;;;;;;5041059;28;20056;-78
2022/04/22 13:37:38;;;;;;;6.43;3.92;;;;;;;;;;5047698;28;20458;-78
2022/04/22 13:40:05;;;;;;;8.05;4.03;;;;;;;;;;5042944;28;20013;-77
2022/04/22 13:42:31;;;;;;;8.13;4.70;;;;;;;;;;5060380;28;20437;-77
2022/04/22 13:53:11;;;;;;;4.45;4.05;;;;;;;;;;5058804;28;20043;-76
2022/04/22 13:55:39;;;;;;;8.77;3.85;;;;;;;;;;5061338;28;20048;-77
2022/04/22 13:58:05;;;;;;;5.78;3.92;;;;;;;;;;5054455;28;20497;-78
2022/04/22 14:00:30;;;;;;;4.63;3.72;;;;;;;;;;5047930;28;20191;-77
2022/04/22 14:02:56;;;;;;;5.15;3.58;;;;;;;;;;5063184;28;20016;-77
2022/04/22 14:05:22;;;;;;;5.30;3.65;;;;;;;;;;5025292;28;20052;-76
2022/04/22 14:07:51;;;;;;;8.43;4.05;;;;;;;;;;5050257;28;20483;-77
2022/04/22 14:10:16;;;;;;;5.75;3.70;;;;;;;;;;5060707;28;20040;-78
2022/04/22 14:12:42;;;;;;;7.07;4.00;;;;;;;;;;5034402;28;20040;-78
2022/04/22 14:15:11;;;;;;;5.50;4.05;;;;;;;;;;5042672;28;20029;-77
2022/04/22 14:17:36;;;;;;;5.85;4.35;;;;;;;;;;5026656;28;20125;-77
2022/04/22 14:20:03;;;;;;;5.55;4.28;;;;;;;;;;5045415;28;20457;-78
2022/04/22 14:22:29;;;;;;;5.97;3.78;;;;;;;;;;5061167;28;20025;-79
2022/04/22 14:24:55;;;;;;;6.40;4.30;;;;;;;;;;5041178;28;20373;-77
2022/04/22 14:27:21;;;;;;;5.57;4.07;;;;;;;;;;5061156;28;20032;-78
2022/04/22 14:29:47;;;;;;;4.95;4.10;;;;;;;;;;5063147;28;20116;-78
2022/04/22 14:32:13;;;;;;;8.73;4.30;;;;;;;;;;5045606;28;20115;-78
2022/04/22 14:34:39;;;;;;;10.60;4.60;;;;;;;;;;5041636;28;20485;-79
2022/04/22 14:37:06;;;;;;;7.20;4.38;;;;;;;;;;5061056;28;20103;-75
2022/04/22 14:39:32;;;;;;;9.65;5.03;;;;;;;;;;5045099;28;20021;-79
2022/04/22 14:41:58;;;;;;;6.13;3.78;;;;;;;;;;5065319;28;20162;-79
2022/04/22 14:44:23;;;;;;;7.45;4.65;;;;;;;;;;5076060;28;20044;-79
2022/04/22 14:46:49;;;;;;;5.93;3.92;;;;;;;;;;5052643;28;20021;-78
2022/04/22 14:49:15;;;;;;;6.50;4.30;;;;;;;;;;5039316;28;20058;-78
2022/04/22 14:51:43;;;;;;;7.63;5.15;;;;;;;;;;5055976;28;20024;-78
2022/04/22 14:54:08;;;;;;;5.13;4.22;;;;;;;;;;5030200;28;20403;-78
2022/04/22 14:56:33;;;;;;;5.68;4.63;;;;;;;;;;5045600;28;20119;-78
2022/04/22 14:58:59;;;;;;;7.03;4.70;;;;;;;;;;5051461;28;20020;-78
2022/04/22 15:01:24;;;;;;;5.22;4.00;;;;;;;;;;5060327;28;20032;-79
2022/04/22 15:03:49;;;;;;;6.35;4.20;;;;;;;;;;5043205;28;20036;-78
2022/04/22 15:06:16;;;;;;;6.45;4.45;;;;;;;;;;5036809;28;20031;-79
2022/04/22 15:08:41;;;;;;;6.80;4.10;;;;;;;;;;5044416;28;20020;-79
2022/04/22 15:11:06;;;;;;;7.18;4.57;;;;;;;;;;5060524;28;20036;-81
2022/04/22 15:13:33;;;;;;;8.52;5.05;;;;;;;;;;5058369;28;20514;-78
2022/04/22 15:15:58;;;;;;;13.32;4.68;;;;;;;;;;5033544;28;20029;-77
2022/04/22 15:24:17;;;;;;;4.15;3.72;;;;;;;;;;5047074;28;20032;-78
2022/04/22 15:26:43;;;;;;;5.18;4.50;;;;;;;;;;5042122;28;20017;-76
2022/04/22 15:29:09;;;;;;;5.50;4.43;;;;;;;;;;5053266;28;20428;-77
2022/04/22 15:31:35;;;;;;;7.55;4.65;;;;;;;;;;5061445;28;20556;-77
2022/04/22 15:34:00;;;;;;;6.30;4.30;;;;;;;;;;5048246;28;20025;-76
2022/04/22 15:36:26;;;;;;;5.80;4.28;;;;;;;;;;5062099;28;20031;-78
2022/04/22 15:38:56;;;;;;;7.20;5.07;;;;;;;;;;5060851;28;20386;-73
2022/04/22 15:41:27;;;;;;;6.95;4.78;;;;;;;;;;5057649;28;20051;-73
2022/04/22 15:43:53;;;;;;;8.02;4.35;;;;;;;;;;5038686;28;20491;-71
2022/04/22 15:46:19;;;;;;;6.90;4.50;;;;;;;;;;5038169;28;20116;-72
2022/04/22 15:48:45;;;;;;;6.07;4.45;;;;;;;;;;5045594;28;20210;-71
2022/04/22 15:51:10;;;;;;;6.38;3.90;;;;;;;;;;5034003;28;20488;-72
2022/04/22 15:53:37;;;;;;;8.45;4.55;;;;;;;;;;5031406;28;20523;-72
2022/04/22 15:56:02;;;;;;;5.32;3.70;;;;;;;;;;5036562;28;20024;-74
2022/04/22 15:58:28;;;;;;;6.72;4.00;;;;;;;;;;5037399;28;20075;-71
2022/04/22 16:00:54;;;;;;;8.50;4.00;;;;;;;;;;5042123;28;20082;-73